sensor_id;sensor_type;location;lat;lon;timestamp;temperature;humidity
17333;DHT22;8784;50.94667800;7.08448400;2023-04-16T00:01:44;10.60;99.90
17333;DHT22;8784;50.94667800;7.08448400;2023-04-16T00:04:10;10.50;99.90
17333;DHT22;8784;50.94667800;7.08448400;2023-04-16T00:06:40;10.50;99.90
17333;DHT22;8784;50.94667800;7.08448400;2023-04-16T00:09:07;10.60;99.90
17333;DHT22;8784;50.94667800;7.08448400;2023-04-16T00:11:34;10.50;99.90
17333;DHT22;8784;50.94667800;7.08448400;2023-04-16T00:14:01;10.50;99.90
17333;DHT22;8784;50.94667800;7.08448400;2023-04-16T00:16:30;10.50;99.90
17333;DHT22;8784;50.94667800;7.08448400;2023-04-16T00:18:57;10.60;99.90
17333;DHT22;8784;50.94667800;7.08448400;2023-04-16T00:21:24;10.60;99.90
17333;DHT22;8784;50.94667800;7.08448400;2023-04-16T00:23:52;10.60;99.90
17333;DHT22;8784;50.94667800;7.08448400;2023-04-16T00:26:19;10.70;99.90
17333;DHT22;8784;50.94667800;7.08448400;2023-04-16T00:28:46;11.00;99.90
17333;DHT22;8784;50.94667800;7.08448400;2023-04-16T00:31:12;10.40;99.90
17333;DHT22;8784;50.94667800;7.08448400;2023-04-16T00:33:41;10.70;99.90
17333;DHT22;8784;50.94667800;7.08448400;2023-04-16T00:36:08;10.50;99.90
17333;DHT22;8784;50.94667800;7.08448400;2023-04-16T00:38:36;10.50;99.90
17333;DHT22;8784;50.94667800;7.08448400;2023-04-16T00:41:03;10.50;99.90
17333;DHT22;8784;50.94667800;7.08448400;2023-04-16T00:43:30;10.50;99.90
17333;DHT22;8784;50.94667800;7.08448400;2023-04-16T00:45:57;10.50;99.90
17333;DHT22;8784;50.94667800;7.08448400;2023-04-16T00:48:24;11.00;99.90
17333;DHT22;8784;50.94667800;7.08448400;2023-04-16T00:50:54;10.50;99.90
17333;DHT22;8784;50.94667800;7.08448400;2023-04-16T00:53:21;10.50;99.90
17333;DHT22;8784;50.94667800;7.08448400;2023-04-16T00:55:49;11.10;99.90
17333;DHT22;8784;50.94667800;7.08448400;2023-04-16T00:58:16;11.30;99.90
17333;DHT22;8784;50.94667800;7.08448400;2023-04-16T01:00:43;10.50;99.90
17333;DHT22;8784;50.94667800;7.08448400;2023-04-16T01:03:11;10.50;99.90
17333;DHT22;8784;50.94667800;7.08448400;2023-04-16T01:05:38;10.70;99.90
17333;DHT22;8784;50.94667800;7.08448400;2023-04-16T01:08:14;10.60;99.90
17333;DHT22;8784;50.94667800;7.08448400;2023-04-16T01:10:41;10.60;99.90
17333;DHT22;8784;50.94667800;7.08448400;2023-04-16T01:13:08;10.60;99.90
17333;DHT22;8784;50.94667800;7.08448400;2023-04-16T01:15:35;10.60;99.90
17333;DHT22;8784;50.94667800;7.08448400;2023-04-16T01:18:11;10.60;99.90
17333;DHT22;8784;50.94667800;7.08448400;2023-04-16T01:20:41;10.60;99.90
17333;DHT22;8784;50.94667800;7.08448400;2023-04-16T01:23:08;10.70;99.90
17333;DHT22;8784;50.94667800;7.08448400;2023-04-16T01:25:36;10.60;99.90
17333;DHT22;8784;50.94667800;7.08448400;2023-04-16T01:28:03;10.60;99.90
17333;DHT22;8784;50.94667800;7.08448400;2023-04-16T01:30:30;10.60;99.90
17333;DHT22;8784;50.94667800;7.08448400;2023-04-16T01:32:57;10.60;99.90
17333;DHT22;8784;50.94667800;7.08448400;2023-04-16T01:35:24;10.60;99.90
17333;DHT22;8784;50.94667800;7.08448400;2023-04-16T01:37:54;10.60;99.90
17333;DHT22;8784;50.94667800;7.08448400;2023-04-16T01:40:21;10.50;99.90
17333;DHT22;8784;50.94667800;7.08448400;2023-04-16T01:42:48;10.50;99.90
17333;DHT22;8784;50.94667800;7.08448400;2023-04-16T01:45:15;10.50;99.90
17333;DHT22;8784;50.94667800;7.08448400;2023-04-16T01:47:42;10.60;99.90
17333;DHT22;8784;50.94667800;7.08448400;2023-04-16T01:50:09;10.60;99.90
17333;DHT22;8784;50.94667800;7.08448400;2023-04-16T01:52:36;10.50;99.90
17333;DHT22;8784;50.94667800;7.08448400;2023-04-16T01:55:06;10.50;99.90
17333;DHT22;8784;50.94667800;7.08448400;2023-04-16T01:57:34;10.50;99.90
17333;DHT22;8784;50.94667800;7.08448400;2023-04-16T02:00:02;10.50;99.90
17333;DHT22;8784;50.94667800;7.08448400;2023-04-16T02:02:29;10.50;99.90
17333;DHT22;8784;50.94667800;7.08448400;2023-04-16T02:04:56;10.40;99.90
17333;DHT22;8784;50.94667800;7.08448400;2023-04-16T02:07:23;10.40;99.90
17333;DHT22;8784;50.94667800;7.08448400;2023-04-16T02:09:52;10.80;99.90
17333;DHT22;8784;50.94667800;7.08448400;2023-04-16T02:12:20;10.60;99.90
17333;DHT22;8784;50.94667800;7.08448400;2023-04-16T02:14:47;10.60;99.90
17333;DHT22;8784;50.94667800;7.08448400;2023-04-16T02:17:14;10.60;99.90
17333;DHT22;8784;50.94667800;7.08448400;2023-04-16T02:19:41;11.50;99.90
17333;DHT22;8784;50.94667800;7.08448400;2023-04-16T02:22:08;10.60;99.90
17333;DHT22;8784;50.94667800;7.08448400;2023-04-16T02:24:35;10.60;99.90
17333;DHT22;8784;50.94667800;7.08448400;2023-04-16T02:27:02;10.50;99.90
17333;DHT22;8784;50.94667800;7.08448400;2023-04-16T02:29:31;10.60;99.90
17333;DHT22;8784;50.94667800;7.08448400;2023-04-16T02:31:58;10.80;99.90
17333;DHT22;8784;50.94667800;7.08448400;2023-04-16T02:34:25;10.60;99.90
17333;DHT22;8784;50.94667800;7.08448400;2023-04-16T02:36:52;10.70;99.90
17333;DHT22;8784;50.94667800;7.08448400;2023-04-16T02:39:19;10.70;99.90
17333;DHT22;8784;50.94667800;7.08448400;2023-04-16T02:41:46;10.80;99.90
17333;DHT22;8784;50.94667800;7.08448400;2023-04-16T02:44:13;10.60;99.90
17333;DHT22;8784;50.94667800;7.08448400;2023-04-16T02:46:42;10.60;99.90
17333;DHT22;8784;50.94667800;7.08448400;2023-04-16T02:49:08;10.80;99.90
17333;DHT22;8784;50.94667800;7.08448400;2023-04-16T02:51:36;10.60;99.90
17333;DHT22;8784;50.94667800;7.08448400;2023-04-16T02:54:03;10.60;99.90
17333;DHT22;8784;50.94667800;7.08448400;2023-04-16T02:56:30;10.60;99.90
17333;DHT22;8784;50.94667800;7.08448400;2023-04-16T02:58:57;10.60;99.90
17333;DHT22;8784;50.94667800;7.08448400;2023-04-16T03:01:24;10.60;99.90
17333;DHT22;8784;50.94667800;7.08448400;2023-04-16T03:03:54;10.60;99.90
17333;DHT22;8784;50.94667800;7.08448400;2023-04-16T03:06:21;10.60;99.90
17333;DHT22;8784;50.94667800;7.08448400;2023-04-16T03:08:48;10.70;99.90
17333;DHT22;8784;50.94667800;7.08448400;2023-04-16T03:11:15;10.60;99.90
17333;DHT22;8784;50.94667800;7.08448400;2023-04-16T03:13:42;10.50;99.90
17333;DHT22;8784;50.94667800;7.08448400;2023-04-16T03:16:09;11.00;99.90
17333;DHT22;8784;50.94667800;7.08448400;2023-04-16T03:18:39;10.40;99.90
17333;DHT22;8784;50.94667800;7.08448400;2023-04-16T03:21:07;11.10;99.90
17333;DHT22;8784;50.94667800;7.08448400;2023-04-16T03:23:34;10.50;99.90
17333;DHT22;8784;50.94667800;7.08448400;2023-04-16T03:26:01;10.40;99.90
17333;DHT22;8784;50.94667800;7.08448400;2023-04-16T03:28:28;10.50;99.90
17333;DHT22;8784;50.94667800;7.08448400;2023-04-16T03:30:55;10.40;99.90
17333;DHT22;8784;50.94667800;7.08448400;2023-04-16T03:33:22;10.50;99.90
17333;DHT22;8784;50.94667800;7.08448400;2023-04-16T03:35:55;10.50;99.90
17333;DHT22;8784;50.94667800;7.08448400;2023-04-16T03:38:24;10.50;99.90
17333;DHT22;8784;50.94667800;7.08448400;2023-04-16T03:40:51;10.50;99.90
17333;DHT22;8784;50.94667800;7.08448400;2023-04-16T03:43:18;10.50;99.90
17333;DHT22;8784;50.94667800;7.08448400;2023-04-16T03:45:46;10.40;99.90
17333;DHT22;8784;50.94667800;7.08448400;2023-04-16T03:48:14;10.40;99.90
17333;DHT22;8784;50.94667800;7.08448400;2023-04-16T03:50:44;10.40;99.90
17333;DHT22;8784;50.94667800;7.08448400;2023-04-16T03:53:12;10.40;99.90
17333;DHT22;8784;50.94667800;7.08448400;2023-04-16T03:55:41;10.50;99.90
17333;DHT22;8784;50.94667800;7.08448400;2023-04-16T03:58:08;10.40;99.90
17333;DHT22;8784;50.94667800;7.08448400;2023-04-16T04:00:35;10.30;99.90
17333;DHT22;8784;50.94667800;7.08448400;2023-04-16T04:03:02;10.30;99.90
17333;DHT22;8784;50.94667800;7.08448400;2023-04-16T04:05:29;10.30;99.90
17333;DHT22;8784;50.94667800;7.08448400;2023-04-16T04:07:56;10.30;99.90
17333;DHT22;8784;50.94667800;7.08448400;2023-04-16T04:10:23;10.40;99.90
17333;DHT22;8784;50.94667800;7.08448400;2023-04-16T04:12:51;10.20;99.90
17333;DHT22;8784;50.94667800;7.08448400;2023-04-16T04:15:18;10.30;99.90
17333;DHT22;8784;50.94667800;7.08448400;2023-04-16T04:17:45;10.30;99.90
17333;DHT22;8784;50.94667800;7.08448400;2023-04-16T04:20:12;10.30;99.90
17333;DHT22;8784;50.94667800;7.08448400;2023-04-16T04:22:39;10.40;99.90
17333;DHT22;8784;50.94667800;7.08448400;2023-04-16T04:25:08;10.40;99.90
17333;DHT22;8784;50.94667800;7.08448400;2023-04-16T04:27:36;10.40;99.90
17333;DHT22;8784;50.94667800;7.08448400;2023-04-16T04:30:06;10.40;99.90
17333;DHT22;8784;50.94667800;7.08448400;2023-04-16T04:32:33;10.50;99.90
17333;DHT22;8784;50.94667800;7.08448400;2023-04-16T04:35:01;10.50;99.90
17333;DHT22;8784;50.94667800;7.08448400;2023-04-16T04:37:28;10.40;99.90
17333;DHT22;8784;50.94667800;7.08448400;2023-04-16T04:39:55;10.60;99.90
17333;DHT22;8784;50.94667800;7.08448400;2023-04-16T04:42:22;10.50;99.90
17333;DHT22;8784;50.94667800;7.08448400;2023-04-16T04:44:49;10.50;99.90
17333;DHT22;8784;50.94667800;7.08448400;2023-04-16T04:47:17;10.60;99.90
17333;DHT22;8784;50.94667800;7.08448400;2023-04-16T04:49:44;10.60;99.90
17333;DHT22;8784;50.94667800;7.08448400;2023-04-16T04:52:11;10.70;99.90
17333;DHT22;8784;50.94667800;7.08448400;2023-04-16T04:54:38;10.60;99.90
17333;DHT22;8784;50.94667800;7.08448400;2023-04-16T04:57:06;10.50;99.90
17333;DHT22;8784;50.94667800;7.08448400;2023-04-16T04:59:33;10.60;99.90
17333;DHT22;8784;50.94667800;7.08448400;2023-04-16T05:02:00;10.60;99.90
17333;DHT22;8784;50.94667800;7.08448400;2023-04-16T05:04:29;10.60;99.90
17333;DHT22;8784;50.94667800;7.08448400;2023-04-16T05:06:56;10.60;99.90
17333;DHT22;8784;50.94667800;7.08448400;2023-04-16T05:09:23;10.90;99.90
17333;DHT22;8784;50.94667800;7.08448400;2023-04-16T05:11:50;10.60;99.90
17333;DHT22;8784;50.94667800;7.08448400;2023-04-16T05:14:17;10.70;99.90
17333;DHT22;8784;50.94667800;7.08448400;2023-04-16T05:16:44;10.70;99.90
17333;DHT22;8784;50.94667800;7.08448400;2023-04-16T05:19:12;10.60;99.90
17333;DHT22;8784;50.94667800;7.08448400;2023-04-16T05:21:40;10.70;99.90
17333;DHT22;8784;50.94667800;7.08448400;2023-04-16T05:24:07;10.70;99.90
17333;DHT22;8784;50.94667800;7.08448400;2023-04-16T05:26:34;10.70;99.90
17333;DHT22;8784;50.94667800;7.08448400;2023-04-16T05:29:01;10.60;99.90
17333;DHT22;8784;50.94667800;7.08448400;2023-04-16T05:31:28;10.70;99.90
17333;DHT22;8784;50.94667800;7.08448400;2023-04-16T05:33:55;10.90;99.90
17333;DHT22;8784;50.94667800;7.08448400;2023-04-16T05:36:22;10.80;99.90
17333;DHT22;8784;50.94667800;7.08448400;2023-04-16T05:38:50;10.80;99.90
17333;DHT22;8784;50.94667800;7.08448400;2023-04-16T05:41:17;10.80;99.90
17333;DHT22;8784;50.94667800;7.08448400;2023-04-16T05:43:44;10.70;99.90
17333;DHT22;8784;50.94667800;7.08448400;2023-04-16T05:46:11;10.70;99.90
17333;DHT22;8784;50.94667800;7.08448400;2023-04-16T05:48:38;10.80;99.90
17333;DHT22;8784;50.94667800;7.08448400;2023-04-16T05:51:05;10.80;99.90
17333;DHT22;8784;50.94667800;7.08448400;2023-04-16T05:53:33;10.80;99.90
17333;DHT22;8784;50.94667800;7.08448400;2023-04-16T05:56:02;10.80;99.90
17333;DHT22;8784;50.94667800;7.08448400;2023-04-16T05:58:29;10.80;99.90
17333;DHT22;8784;50.94667800;7.08448400;2023-04-16T06:00:56;10.80;99.90
17333;DHT22;8784;50.94667800;7.08448400;2023-04-16T06:03:24;10.80;99.90
17333;DHT22;8784;50.94667800;7.08448400;2023-04-16T06:05:53;10.80;99.90
17333;DHT22;8784;50.94667800;7.08448400;2023-04-16T06:08:20;10.80;99.90
17333;DHT22;8784;50.94667800;7.08448400;2023-04-16T06:10:47;10.90;99.90
17333;DHT22;8784;50.94667800;7.08448400;2023-04-16T06:13:17;10.90;99.90
17333;DHT22;8784;50.94667800;7.08448400;2023-04-16T06:15:44;10.80;99.90
17333;DHT22;8784;50.94667800;7.08448400;2023-04-16T06:18:12;10.70;99.90
17333;DHT22;8784;50.94667800;7.08448400;2023-04-16T06:20:39;10.70;99.90
17333;DHT22;8784;50.94667800;7.08448400;2023-04-16T06:23:06;10.80;99.90
17333;DHT22;8784;50.94667800;7.08448400;2023-04-16T06:25:33;10.80;99.90
17333;DHT22;8784;50.94667800;7.08448400;2023-04-16T06:27:59;10.80;99.90
17333;DHT22;8784;50.94667800;7.08448400;2023-04-16T06:30:28;10.90;99.90
17333;DHT22;8784;50.94667800;7.08448400;2023-04-16T06:32:55;11.20;99.90
17333;DHT22;8784;50.94667800;7.08448400;2023-04-16T06:35:23;11.70;99.90
17333;DHT22;8784;50.94667800;7.08448400;2023-04-16T06:37:50;11.40;99.90
17333;DHT22;8784;50.94667800;7.08448400;2023-04-16T06:40:17;11.10;99.90
17333;DHT22;8784;50.94667800;7.08448400;2023-04-16T06:42:44;10.90;99.90
17333;DHT22;8784;50.94667800;7.08448400;2023-04-16T06:45:12;10.90;99.90
17333;DHT22;8784;50.94667800;7.08448400;2023-04-16T06:47:40;10.80;99.90
17333;DHT22;8784;50.94667800;7.08448400;2023-04-16T06:50:08;10.90;99.90
17333;DHT22;8784;50.94667800;7.08448400;2023-04-16T06:52:35;10.90;99.90
17333;DHT22;8784;50.94667800;7.08448400;2023-04-16T06:55:02;10.90;99.90
17333;DHT22;8784;50.94667800;7.08448400;2023-04-16T06:57:30;10.40;99.90
17333;DHT22;8784;50.94667800;7.08448400;2023-04-16T07:00:22;11.00;99.90
17333;DHT22;8784;50.94667800;7.08448400;2023-04-16T07:02:51;11.10;99.90
17333;DHT22;8784;50.94667800;7.08448400;2023-04-16T07:05:18;11.00;99.90
17333;DHT22;8784;50.94667800;7.08448400;2023-04-16T07:07:45;11.10;99.90
17333;DHT22;8784;50.94667800;7.08448400;2023-04-16T07:10:12;11.10;99.90
17333;DHT22;8784;50.94667800;7.08448400;2023-04-16T07:12:39;11.10;99.90
17333;DHT22;8784;50.94667800;7.08448400;2023-04-16T07:15:07;11.10;99.90
17333;DHT22;8784;50.94667800;7.08448400;2023-04-16T07:17:34;11.30;99.90
17333;DHT22;8784;50.94667800;7.08448400;2023-04-16T07:20:03;11.30;99.90
17333;DHT22;8784;50.94667800;7.08448400;2023-04-16T07:22:30;11.40;99.90
17333;DHT22;8784;50.94667800;7.08448400;2023-04-16T07:24:57;11.40;99.90
17333;DHT22;8784;50.94667800;7.08448400;2023-04-16T07:27:24;11.40;99.90
17333;DHT22;8784;50.94667800;7.08448400;2023-04-16T07:29:51;11.40;99.90
17333;DHT22;8784;50.94667800;7.08448400;2023-04-16T07:32:20;11.50;99.90
17333;DHT22;8784;50.94667800;7.08448400;2023-04-16T07:34:48;11.40;99.90
17333;DHT22;8784;50.94667800;7.08448400;2023-04-16T07:37:16;11.40;99.90
17333;DHT22;8784;50.94667800;7.08448400;2023-04-16T07:39:43;11.80;99.90
17333;DHT22;8784;50.94667800;7.08448400;2023-04-16T07:42:10;11.70;99.90
17333;DHT22;8784;50.94667800;7.08448400;2023-04-16T07:44:37;11.60;99.90
17333;DHT22;8784;50.94667800;7.08448400;2023-04-16T07:47:04;11.70;99.90
17333;DHT22;8784;50.94667800;7.08448400;2023-04-16T07:49:31;11.50;99.90
17333;DHT22;8784;50.94667800;7.08448400;2023-04-16T07:51:58;11.70;99.90
17333;DHT22;8784;50.94667800;7.08448400;2023-04-16T07:54:26;11.70;99.90
17333;DHT22;8784;50.94667800;7.08448400;2023-04-16T07:56:53;11.80;99.90
17333;DHT22;8784;50.94667800;7.08448400;2023-04-16T07:59:20;12.00;99.90
17333;DHT22;8784;50.94667800;7.08448400;2023-04-16T08:01:47;11.90;99.90
17333;DHT22;8784;50.94667800;7.08448400;2023-04-16T08:04:14;12.10;99.90
17333;DHT22;8784;50.94667800;7.08448400;2023-04-16T08:06:47;12.20;99.90
17333;DHT22;8784;50.94667800;7.08448400;2023-04-16T08:09:14;12.10;99.90
17333;DHT22;8784;50.94667800;7.08448400;2023-04-16T08:11:42;12.10;99.90
17333;DHT22;8784;50.94667800;7.08448400;2023-04-16T08:14:09;12.30;99.90
17333;DHT22;8784;50.94667800;7.08448400;2023-04-16T08:16:36;12.20;99.90
17333;DHT22;8784;50.94667800;7.08448400;2023-04-16T08:19:05;12.30;99.90
17333;DHT22;8784;50.94667800;7.08448400;2023-04-16T08:21:32;12.30;99.90
17333;DHT22;8784;50.94667800;7.08448400;2023-04-16T08:23:59;12.30;99.90
17333;DHT22;8784;50.94667800;7.08448400;2023-04-16T08:26:26;12.40;99.90
17333;DHT22;8784;50.94667800;7.08448400;2023-04-16T08:28:54;12.30;99.90
17333;DHT22;8784;50.94667800;7.08448400;2023-04-16T08:31:21;12.40;99.90
17333;DHT22;8784;50.94667800;7.08448400;2023-04-16T08:33:48;12.40;99.90
17333;DHT22;8784;50.94667800;7.08448400;2023-04-16T08:36:15;12.50;99.90
17333;DHT22;8784;50.94667800;7.08448400;2023-04-16T08:38:42;12.50;99.90
17333;DHT22;8784;50.94667800;7.08448400;2023-04-16T08:41:11;12.40;99.90
17333;DHT22;8784;50.94667800;7.08448400;2023-04-16T08:43:43;12.40;99.90
17333;DHT22;8784;50.94667800;7.08448400;2023-04-16T08:46:11;12.50;99.90
17333;DHT22;8784;50.94667800;7.08448400;2023-04-16T08:48:41;12.50;99.90
17333;DHT22;8784;50.94667800;7.08448400;2023-04-16T08:51:09;12.60;99.90
17333;DHT22;8784;50.94667800;7.08448400;2023-04-16T08:53:43;12.60;99.90
17333;DHT22;8784;50.94667800;7.08448400;2023-04-16T08:56:14;12.60;99.90
17333;DHT22;8784;50.94667800;7.08448400;2023-04-16T08:58:41;12.70;99.90
17333;DHT22;8784;50.94667800;7.08448400;2023-04-16T09:01:09;12.90;99.90
17333;DHT22;8784;50.94667800;7.08448400;2023-04-16T09:03:38;13.00;99.90
17333;DHT22;8784;50.94667800;7.08448400;2023-04-16T09:06:05;13.00;99.90
17333;DHT22;8784;50.94667800;7.08448400;2023-04-16T09:08:33;13.00;99.90
17333;DHT22;8784;50.94667800;7.08448400;2023-04-16T09:11:02;13.10;99.90
17333;DHT22;8784;50.94667800;7.08448400;2023-04-16T09:13:30;13.20;99.90
17333;DHT22;8784;50.94667800;7.08448400;2023-04-16T09:15:57;13.20;99.90
17333;DHT22;8784;50.94667800;7.08448400;2023-04-16T09:18:25;13.30;99.90
17333;DHT22;8784;50.94667800;7.08448400;2023-04-16T09:20:54;13.40;99.90
17333;DHT22;8784;50.94667800;7.08448400;2023-04-16T09:23:22;13.70;99.90
17333;DHT22;8784;50.94667800;7.08448400;2023-04-16T09:25:49;14.10;99.90
17333;DHT22;8784;50.94667800;7.08448400;2023-04-16T09:28:37;14.40;99.90
17333;DHT22;8784;50.94667800;7.08448400;2023-04-16T09:31:08;14.50;99.90
17333;DHT22;8784;50.94667800;7.08448400;2023-04-16T09:33:37;14.40;99.90
17333;DHT22;8784;50.94667800;7.08448400;2023-04-16T09:36:06;14.50;99.90
17333;DHT22;8784;50.94667800;7.08448400;2023-04-16T09:38:46;14.40;99.90
17333;DHT22;8784;50.94667800;7.08448400;2023-04-16T09:41:13;14.30;99.90
17333;DHT22;8784;50.94667800;7.08448400;2023-04-16T09:43:48;14.10;99.90
17333;DHT22;8784;50.94667800;7.08448400;2023-04-16T09:46:19;14.10;99.90
17333;DHT22;8784;50.94667800;7.08448400;2023-04-16T09:48:46;14.00;99.90
17333;DHT22;8784;50.94667800;7.08448400;2023-04-16T09:51:16;13.90;99.90
17333;DHT22;8784;50.94667800;7.08448400;2023-04-16T09:53:43;13.90;99.90
17333;DHT22;8784;50.94667800;7.08448400;2023-04-16T09:56:11;13.80;99.90
17333;DHT22;8784;50.94667800;7.08448400;2023-04-16T09:58:38;13.80;99.90
17333;DHT22;8784;50.94667800;7.08448400;2023-04-16T10:01:07;13.70;99.90
17333;DHT22;8784;50.94667800;7.08448400;2023-04-16T10:03:36;13.70;99.90
17333;DHT22;8784;50.94667800;7.08448400;2023-04-16T10:06:07;13.70;99.90
17333;DHT22;8784;50.94667800;7.08448400;2023-04-16T10:08:36;13.70;99.90
17333;DHT22;8784;50.94667800;7.08448400;2023-04-16T10:11:03;13.80;99.90
17333;DHT22;8784;50.94667800;7.08448400;2023-04-16T10:13:31;13.80;99.90
17333;DHT22;8784;50.94667800;7.08448400;2023-04-16T10:15:58;13.80;99.90
17333;DHT22;8784;50.94667800;7.08448400;2023-04-16T10:18:26;13.80;99.90
17333;DHT22;8784;50.94667800;7.08448400;2023-04-16T10:20:54;13.80;99.90
17333;DHT22;8784;50.94667800;7.08448400;2023-04-16T10:23:22;13.80;99.90
17333;DHT22;8784;50.94667800;7.08448400;2023-04-16T10:25:52;13.90;99.90
17333;DHT22;8784;50.94667800;7.08448400;2023-04-16T10:28:20;13.90;99.90
17333;DHT22;8784;50.94667800;7.08448400;2023-04-16T10:30:48;13.90;99.90
17333;DHT22;8784;50.94667800;7.08448400;2023-04-16T10:33:22;14.00;99.90
17333;DHT22;8784;50.94667800;7.08448400;2023-04-16T10:35:49;14.10;99.90
17333;DHT22;8784;50.94667800;7.08448400;2023-04-16T10:38:21;14.20;99.90
17333;DHT22;8784;50.94667800;7.08448400;2023-04-16T10:40:55;14.30;99.90
17333;DHT22;8784;50.94667800;7.08448400;2023-04-16T10:43:24;14.40;99.90
17333;DHT22;8784;50.94667800;7.08448400;2023-04-16T10:45:52;14.50;99.90
17333;DHT22;8784;50.94667800;7.08448400;2023-04-16T10:48:22;14.40;99.90
17333;DHT22;8784;50.94667800;7.08448400;2023-04-16T10:50:54;14.40;99.90
17333;DHT22;8784;50.94667800;7.08448400;2023-04-16T10:53:24;14.50;99.90
17333;DHT22;8784;50.94667800;7.08448400;2023-04-16T10:56:09;14.50;99.90
17333;DHT22;8784;50.94667800;7.08448400;2023-04-16T10:58:38;14.60;99.90
17333;DHT22;8784;50.94667800;7.08448400;2023-04-16T11:01:11;14.70;99.90
17333;DHT22;8784;50.94667800;7.08448400;2023-04-16T11:03:43;15.00;99.90
17333;DHT22;8784;50.94667800;7.08448400;2023-04-16T11:06:12;15.10;99.90
17333;DHT22;8784;50.94667800;7.08448400;2023-04-16T11:08:47;15.10;99.90
17333;DHT22;8784;50.94667800;7.08448400;2023-04-16T11:11:21;15.20;99.90
17333;DHT22;8784;50.94667800;7.08448400;2023-04-16T11:13:48;15.20;99.90
17333;DHT22;8784;50.94667800;7.08448400;2023-04-16T11:16:16;15.20;99.90
17333;DHT22;8784;50.94667800;7.08448400;2023-04-16T11:18:44;15.20;99.90
17333;DHT22;8784;50.94667800;7.08448400;2023-04-16T11:21:12;15.20;99.90
17333;DHT22;8784;50.94667800;7.08448400;2023-04-16T11:23:49;15.20;99.90
17333;DHT22;8784;50.94667800;7.08448400;2023-04-16T11:26:26;15.20;99.90
17333;DHT22;8784;50.94667800;7.08448400;2023-04-16T11:28:54;15.10;99.90
17333;DHT22;8784;50.94667800;7.08448400;2023-04-16T11:31:22;15.00;99.90
17333;DHT22;8784;50.94667800;7.08448400;2023-04-16T11:33:49;15.00;99.90
17333;DHT22;8784;50.94667800;7.08448400;2023-04-16T11:36:16;15.20;99.90
17333;DHT22;8784;50.94667800;7.08448400;2023-04-16T11:38:45;15.20;99.90
17333;DHT22;8784;50.94667800;7.08448400;2023-04-16T11:41:18;15.20;99.90
17333;DHT22;8784;50.94667800;7.08448400;2023-04-16T11:43:47;15.30;99.90
17333;DHT22;8784;50.94667800;7.08448400;2023-04-16T11:46:14;15.40;99.90
17333;DHT22;8784;50.94667800;7.08448400;2023-04-16T11:48:46;15.50;99.90
17333;DHT22;8784;50.94667800;7.08448400;2023-04-16T11:51:13;15.50;99.90
17333;DHT22;8784;50.94667800;7.08448400;2023-04-16T11:53:45;15.50;99.90
17333;DHT22;8784;50.94667800;7.08448400;2023-04-16T11:56:12;15.50;99.90
17333;DHT22;8784;50.94667800;7.08448400;2023-04-16T11:58:39;15.60;99.90
17333;DHT22;8784;50.94667800;7.08448400;2023-04-16T12:01:09;15.80;99.90
17333;DHT22;8784;50.94667800;7.08448400;2023-04-16T12:03:37;16.10;99.90
17333;DHT22;8784;50.94667800;7.08448400;2023-04-16T12:06:09;16.10;99.90
17333;DHT22;8784;50.94667800;7.08448400;2023-04-16T12:08:36;16.10;99.90
17333;DHT22;8784;50.94667800;7.08448400;2023-04-16T12:11:03;16.10;99.90
17333;DHT22;8784;50.94667800;7.08448400;2023-04-16T12:13:31;16.00;99.90
17333;DHT22;8784;50.94667800;7.08448400;2023-04-16T12:16:17;16.10;99.70
17333;DHT22;8784;50.94667800;7.08448400;2023-04-16T12:19:03;16.00;99.30
17333;DHT22;8784;50.94667800;7.08448400;2023-04-16T12:21:37;16.00;99.10
17333;DHT22;8784;50.94667800;7.08448400;2023-04-16T12:24:05;16.00;99.20
17333;DHT22;8784;50.94667800;7.08448400;2023-04-16T12:26:37;16.00;99.00
17333;DHT22;8784;50.94667800;7.08448400;2023-04-16T12:29:18;16.10;98.90
17333;DHT22;8784;50.94667800;7.08448400;2023-04-16T12:31:48;16.20;98.60
17333;DHT22;8784;50.94667800;7.08448400;2023-04-16T12:34:16;16.20;98.20
17333;DHT22;8784;50.94667800;7.08448400;2023-04-16T12:36:44;16.20;98.10
17333;DHT22;8784;50.94667800;7.08448400;2023-04-16T12:39:12;16.30;97.90
17333;DHT22;8784;50.94667800;7.08448400;2023-04-16T12:41:41;16.50;97.70
17333;DHT22;8784;50.94667800;7.08448400;2023-04-16T12:44:10;16.70;97.50
17333;DHT22;8784;50.94667800;7.08448400;2023-04-16T12:46:39;16.90;97.30
17333;DHT22;8784;50.94667800;7.08448400;2023-04-16T12:49:09;16.90;96.90
17333;DHT22;8784;50.94667800;7.08448400;2023-04-16T12:51:37;17.20;96.60
17333;DHT22;8784;50.94667800;7.08448400;2023-04-16T12:54:06;17.40;96.40
17333;DHT22;8784;50.94667800;7.08448400;2023-04-16T12:56:33;17.70;95.90
17333;DHT22;8784;50.94667800;7.08448400;2023-04-16T12:59:00;17.80;95.50
17333;DHT22;8784;50.94667800;7.08448400;2023-04-16T13:01:27;17.80;94.70
17333;DHT22;8784;50.94667800;7.08448400;2023-04-16T13:03:54;17.90;94.60
17333;DHT22;8784;50.94667800;7.08448400;2023-04-16T13:06:23;17.90;94.00
17333;DHT22;8784;50.94667800;7.08448400;2023-04-16T13:08:50;17.70;93.50
17333;DHT22;8784;50.94667800;7.08448400;2023-04-16T13:11:17;17.40;93.50
17333;DHT22;8784;50.94667800;7.08448400;2023-04-16T13:13:44;17.20;93.50
17333;DHT22;8784;50.94667800;7.08448400;2023-04-16T13:16:12;17.00;93.60
17333;DHT22;8784;50.94667800;7.08448400;2023-04-16T13:18:39;16.90;93.70
17333;DHT22;8784;50.94667800;7.08448400;2023-04-16T13:21:07;16.80;93.70
17333;DHT22;8784;50.94667800;7.08448400;2023-04-16T13:23:36;16.60;93.60
17333;DHT22;8784;50.94667800;7.08448400;2023-04-16T13:26:03;16.50;93.70
17333;DHT22;8784;50.94667800;7.08448400;2023-04-16T13:28:30;16.40;93.70
17333;DHT22;8784;50.94667800;7.08448400;2023-04-16T13:30:58;16.20;93.80
17333;DHT22;8784;50.94667800;7.08448400;2023-04-16T13:33:25;16.20;93.90
17333;DHT22;8784;50.94667800;7.08448400;2023-04-16T13:35:52;16.10;93.90
17333;DHT22;8784;50.94667800;7.08448400;2023-04-16T13:38:20;16.00;93.80
17333;DHT22;8784;50.94667800;7.08448400;2023-04-16T13:40:49;15.80;93.80